Terminal Aerodrome Forecast
Issued by NWS

Home | Current Version | Previous Version | Text Only | Print | Product List | Glossary On
Versions: 1 2 3 4 5 6 7 8 9 10 11 12 13
831
FTUS44 KJAN 210520
TAFHKS
TAF
KHKS 210520Z 2106/2206 19005KT P6SM SCT100
     FM211300 17008KT P6SM BKN025
     FM211600 16013G19KT P6SM SCT040 BKN100=

USA.gov is the U.S. government's official web portal to all federal, state and local government web resources and services.